Time;durP1;ratioP1;P1;durP2;ratioP2;P2;SDS_P1;SDS_P2;PMS_P1;PMS_P2;Temp;Humidity;BMP_temperature;BMP_pressure;BME280_temperature;BME280_humidity;BME280_pressure;Samples;Min_cycle;Max_cycle;Signal;HPM_P1;HPM_P2
2021/12/29 00:01:04;;;;;;;18.10;8.63;;;6.70;99.90;;;;;;5111718;28;20035;-73
2021/12/29 00:03:30;;;;;;;21.33;9.07;;;6.70;99.90;;;;;;5103399;28;20111;-72
2021/12/29 00:05:55;;;;;;;21.58;9.40;;;6.60;99.90;;;;;;5078293;28;20446;-72
2021/12/29 00:08:21;;;;;;;19.27;8.88;;;6.60;99.90;;;;;;5088079;28;20076;-72
2021/12/29 00:10:54;;;;;;;16.20;8.00;;;6.60;99.90;;;;;;5095767;27;20514;-73
2021/12/29 00:13:20;;;;;;;25.83;9.45;;;6.60;99.90;;;;;;5104169;27;20537;-73
2021/12/29 00:15:46;;;;;;;21.08;8.80;;;6.60;99.90;;;;;;5094777;28;20040;-73
2021/12/29 00:18:11;;;;;;;15.10;7.88;;;6.60;99.90;;;;;;5079089;28;20085;-73
2021/12/29 00:20:37;;;;;;;12.80;7.15;;;6.70;99.90;;;;;;5089206;28;20086;-73
2021/12/29 00:23:07;;;;;;;15.25;7.07;;;6.70;99.90;;;;;;5148163;27;20039;-73
2021/12/29 00:25:33;;;;;;;16.85;8.68;;;6.60;99.90;;;;;;5115720;28;20575;-73
2021/12/29 00:27:59;;;;;;;13.02;7.30;;;6.60;99.90;;;;;;5141403;27;20233;-73
2021/12/29 00:30:26;;;;;;;13.05;6.95;;;6.60;99.90;;;;;;5114901;28;20126;-73
2021/12/29 00:32:51;;;;;;;17.05;7.68;;;6.60;99.90;;;;;;5092008;28;20032;-73
2021/12/29 00:35:18;;;;;;;13.40;7.00;;;6.60;99.90;;;;;;5111453;28;20028;-73
2021/12/29 00:37:44;;;;;;;17.52;7.15;;;6.60;99.90;;;;;;5082910;28;20035;-73
2021/12/29 00:40:12;;;;;;;15.75;6.88;;;6.60;99.90;;;;;;5132286;27;20394;-73
2021/12/29 00:42:38;;;;;;;15.52;7.60;;;6.50;99.90;;;;;;5096774;28;20051;-73
2021/12/29 00:45:05;;;;;;;10.65;6.07;;;6.50;99.90;;;;;;5114855;28;20050;-73
2021/12/29 00:47:33;;;;;;;14.20;6.60;;;6.50;99.90;;;;;;5093125;28;20039;-73
2021/12/29 00:50:06;;;;;;;16.13;6.78;;;6.50;99.90;;;;;;5113652;28;20043;-73
2021/12/29 00:52:31;;;;;;;14.45;6.57;;;6.50;99.90;;;;;;5094341;28;20380;-73
2021/12/29 00:54:57;;;;;;;14.50;6.70;;;6.50;99.90;;;;;;5128299;27;20047;-73
2021/12/29 00:57:22;;;;;;;11.70;6.30;;;6.60;99.90;;;;;;5131458;27;20053;-73
2021/12/29 00:59:48;;;;;;;13.80;6.32;;;6.60;99.90;;;;;;5127947;27;20134;-73
2021/12/29 01:02:13;;;;;;;13.75;6.22;;;6.60;99.90;;;;;;5096275;28;20036;-73
2021/12/29 01:04:39;;;;;;;14.63;6.30;;;6.60;99.90;;;;;;5100801;28;20042;-73
2021/12/29 01:07:05;;;;;;;13.05;6.25;;;6.60;99.90;;;;;;5094038;28;20082;-73
2021/12/29 01:09:31;;;;;;;16.80;7.22;;;6.60;99.90;;;;;;5111414;28;20039;-73
2021/12/29 01:11:58;;;;;;;13.45;6.28;;;6.60;99.90;;;;;;5114186;28;20044;-73
2021/12/29 01:14:26;;;;;;;17.35;6.80;;;6.60;99.90;;;;;;5095531;28;20036;-73
2021/12/29 01:16:52;;;;;;;14.75;6.75;;;6.60;99.90;;;;;;5093477;28;20051;-73
2021/12/29 01:19:20;;;;;;;23.80;6.80;;;6.60;99.90;;;;;;5121630;27;20039;-73
2021/12/29 01:21:49;;;;;;;17.13;6.72;;;6.50;99.90;;;;;;5114169;27;20039;-73
2021/12/29 01:24:17;;;;;;;22.20;8.07;;;6.60;99.90;;;;;;5094186;28;20035;-73
2021/12/29 01:26:43;;;;;;;24.08;7.43;;;6.60;99.90;;;;;;5093710;28;20036;-73
2021/12/29 01:29:13;;;;;;;26.77;8.27;;;6.60;99.90;;;;;;5110462;28;20040;-73
2021/12/29 01:31:39;;;;;;;24.95;7.57;;;6.60;99.90;;;;;;5093750;28;20427;-73
2021/12/29 01:34:05;;;;;;;31.00;8.85;;;6.60;99.90;;;;;;5077213;28;20101;-73
2021/12/29 01:36:36;;;;;;;32.80;9.05;;;6.60;99.90;;;;;;5113797;28;20036;-72
2021/12/29 01:39:04;;;;;;;38.78;9.55;;;6.60;99.90;;;;;;5095870;28;20035;-73
2021/12/29 01:41:30;;;;;;;25.02;8.80;;;6.60;99.90;;;;;;5093019;28;20103;-72
2021/12/29 01:43:56;;;;;;;37.00;9.45;;;6.60;99.90;;;;;;5080071;28;20076;-73
2021/12/29 01:46:22;;;;;;;40.80;11.00;;;6.60;99.90;;;;;;5097046;28;20044;-73
2021/12/29 01:48:47;;;;;;;38.33;8.95;;;6.60;99.90;;;;;;5146404;27;20507;-73
2021/12/29 01:51:17;;;;;;;28.10;9.57;;;6.60;99.90;;;;;;5096323;28;20114;-72
2021/12/29 01:53:48;;;;;;;36.10;10.57;;;6.70;99.90;;;;;;5112738;28;20429;-73
2021/12/29 01:56:14;;;;;;;51.30;11.02;;;6.60;99.90;;;;;;5112609;28;20040;-73
2021/12/29 01:58:40;;;;;;;37.83;12.10;;;6.70;99.90;;;;;;5100643;28;20119;-72
2021/12/29 02:01:06;;;;;;;54.53;12.18;;;6.70;99.90;;;;;;5092698;28;20132;-72
2021/12/29 02:03:31;;;;;;;54.70;11.90;;;6.70;99.90;;;;;;5092945;28;20044;-72
2021/12/29 02:05:57;;;;;;;63.40;13.00;;;6.70;99.90;;;;;;5076734;28;20047;-72
2021/12/29 02:08:23;;;;;;;40.65;12.27;;;6.70;99.90;;;;;;5100870;28;20040;-73
2021/12/29 02:10:51;;;;;;;46.90;12.10;;;6.70;99.90;;;;;;5113092;28;20043;-72
2021/12/29 02:13:17;;;;;;;67.45;13.23;;;6.80;99.90;;;;;;5109103;28;20085;-72
2021/12/29 02:15:42;;;;;;;48.22;11.73;;;6.80;99.90;;;;;;5126376;27;20032;-72
2021/12/29 02:18:14;;;;;;;49.20;12.05;;;6.80;99.90;;;;;;5097118;28;20032;-72
2021/12/29 02:20:43;;;;;;;50.10;12.02;;;6.80;99.90;;;;;;5112955;28;20127;-72
2021/12/29 02:23:14;;;;;;;22.25;8.90;;;6.90;99.90;;;;;;5111847;28;20165;-72
2021/12/29 02:25:48;;;;;;;30.73;10.48;;;6.90;99.90;;;;;;5098229;28;20110;-72
2021/12/29 02:28:17;;;;;;;51.20;11.30;;;7.00;99.90;;;;;;5113092;28;20039;-72
2021/12/29 02:30:43;;;;;;;27.92;9.45;;;7.00;99.90;;;;;;5110316;28;20407;-72
2021/12/29 02:33:13;;;;;;;44.88;10.95;;;6.90;99.90;;;;;;5075538;28;20040;-72
2021/12/29 02:35:39;;;;;;;40.03;9.77;;;6.90;99.90;;;;;;5092070;28;20396;-72
2021/12/29 02:38:09;;;;;;;37.47;9.60;;;6.90;99.90;;;;;;5075202;28;20531;-72
2021/12/29 02:40:35;;;;;;;45.05;9.98;;;7.00;99.90;;;;;;5075357;28;20039;-72
2021/12/29 02:43:01;;;;;;;39.92;9.15;;;7.00;99.90;;;;;;5094419;28;20047;-73
2021/12/29 02:45:29;;;;;;;34.45;8.25;;;6.90;99.90;;;;;;5079294;28;20078;-72
2021/12/29 02:47:56;;;;;;;20.30;6.50;;;6.90;99.90;;;;;;5126389;27;20450;-72
2021/12/29 02:50:21;;;;;;;24.83;7.47;;;7.00;99.90;;;;;;5092115;28;20040;-72
2021/12/29 02:52:47;;;;;;;30.48;7.30;;;7.00;99.90;;;;;;5108942;28;20035;-73
2021/12/29 02:55:14;;;;;;;31.88;7.38;;;7.00;99.90;;;;;;5075648;28;20040;-73
2021/12/29 02:57:39;;;;;;;27.65;7.20;;;7.00;99.90;;;;;;5088583;28;20039;-73
2021/12/29 03:00:06;;;;;;;33.42;7.25;;;7.00;99.90;;;;;;5129506;28;20550;-73
2021/12/29 03:02:31;;;;;;;24.67;7.25;;;7.00;99.90;;;;;;5079650;28;20090;-73
2021/12/29 03:04:58;;;;;;;26.08;7.18;;;7.00;99.90;;;;;;5108837;28;20148;-72
2021/12/29 03:07:24;;;;;;;33.50;7.72;;;7.00;99.90;;;;;;5091346;28;20048;-72
2021/12/29 03:09:50;;;;;;;33.03;7.35;;;7.10;99.90;;;;;;5092052;28;20040;-72
2021/12/29 03:12:15;;;;;;;24.42;7.30;;;7.00;99.90;;;;;;5119304;27;20114;-73
2021/12/29 03:14:53;;;;;;;24.20;7.40;;;7.10;99.90;;;;;;5106757;28;20028;-73
2021/12/29 03:17:18;;;;;;;29.98;7.38;;;7.10;99.90;;;;;;5113611;28;20039;-73
2021/12/29 03:19:44;;;;;;;35.17;7.85;;;7.00;99.90;;;;;;5116443;28;20396;-72
2021/12/29 03:22:10;;;;;;;37.30;8.75;;;7.00;99.90;;;;;;5149453;27;20046;-72
2021/12/29 03:24:35;;;;;;;33.72;8.02;;;7.00;99.90;;;;;;5098327;28;20054;-72
2021/12/29 03:27:01;;;;;;;42.22;8.93;;;7.10;99.90;;;;;;5133497;27;20063;-72
2021/12/29 03:29:26;;;;;;;41.90;9.32;;;7.10;99.90;;;;;;5126448;27;20089;-72
2021/12/29 03:31:52;;;;;;;37.25;9.98;;;7.10;99.90;;;;;;5099155;28;20100;-72
2021/12/29 03:34:18;;;;;;;45.75;9.15;;;7.10;99.90;;;;;;5103136;28;20043;-72
2021/12/29 03:36:43;;;;;;;40.08;10.10;;;7.10;99.90;;;;;;5110477;28;20377;-72
2021/12/29 03:39:10;;;;;;;43.60;10.82;;;7.10;99.90;;;;;;5095903;28;20067;-72
2021/12/29 03:41:36;;;;;;;43.22;10.75;;;7.20;99.90;;;;;;5095566;28;20474;-72
2021/12/29 03:44:02;;;;;;;37.50;9.43;;;7.20;99.90;;;;;;5096622;28;20127;-72
2021/12/29 03:46:28;;;;;;;44.55;11.80;;;7.10;99.90;;;;;;5089093;28;20134;-72
2021/12/29 03:48:54;;;;;;;36.42;10.60;;;7.20;99.90;;;;;;5133043;27;20035;-72
2021/12/29 03:51:20;;;;;;;36.92;10.57;;;7.20;99.90;;;;;;5148797;27;20086;-73
2021/12/29 03:53:45;;;;;;;43.20;11.68;;;7.20;99.90;;;;;;5132911;27;20032;-73
2021/12/29 03:56:11;;;;;;;44.90;12.35;;;7.20;99.90;;;;;;5104450;28;20040;-73
2021/12/29 03:58:37;;;;;;;42.67;12.48;;;7.20;99.90;;;;;;5095318;28;20036;-72
2021/12/29 04:01:09;;;;;;;60.50;13.65;;;7.20;99.90;;;;;;5095253;28;20463;-73
2021/12/29 04:03:35;;;;;;;55.03;14.40;;;7.20;99.90;;;;;;5112194;28;20496;-73
2021/12/29 04:06:00;;;;;;;49.83;14.35;;;7.20;99.90;;;;;;5078805;28;20076;-72
2021/12/29 04:08:26;;;;;;;50.80;14.55;;;7.20;99.90;;;;;;5077986;28;20098;-73
2021/12/29 04:10:51;;;;;;;48.58;13.63;;;7.20;99.90;;;;;;5102444;28;20123;-73
2021/12/29 04:13:17;;;;;;;45.47;14.52;;;7.20;99.90;;;;;;5113057;28;20499;-73
2021/12/29 04:15:43;;;;;;;41.55;13.98;;;7.30;99.90;;;;;;5084560;28;20038;-72
2021/12/29 04:18:15;;;;;;;56.22;15.65;;;7.30;99.90;;;;;;5115314;28;20035;-73
2021/12/29 04:20:57;;;;;;;43.67;14.80;;;7.30;99.90;;;;;;5125654;27;20123;-72
2021/12/29 04:23:25;;;;;;;46.65;14.52;;;7.30;99.90;;;;;;5093822;28;20043;-73
2021/12/29 04:25:53;;;;;;;49.92;15.88;;;7.30;99.90;;;;;;5089783;28;20540;-73
2021/12/29 04:28:23;;;;;;;50.70;15.23;;;7.30;99.90;;;;;;5077956;28;20044;-73
2021/12/29 04:30:50;;;;;;;53.50;15.93;;;7.40;99.90;;;;;;5128491;27;20063;-73
2021/12/29 04:33:17;;;;;;;36.90;13.63;;;7.30;99.90;;;;;;5111818;28;20388;-73
2021/12/29 04:35:43;;;;;;;55.40;16.83;;;7.40;99.90;;;;;;5111345;27;20036;-72
2021/12/29 04:38:09;;;;;;;51.47;16.48;;;7.40;99.90;;;;;;5094526;28;20040;-72
2021/12/29 04:40:34;;;;;;;48.53;16.30;;;7.40;99.90;;;;;;5077877;28;20047;-72
2021/12/29 04:43:00;;;;;;;55.33;17.30;;;7.40;99.90;;;;;;5094217;28;20205;-73
2021/12/29 04:45:27;;;;;;;53.40;16.90;;;7.40;99.90;;;;;;5096981;28;20550;-72
2021/12/29 04:47:53;;;;;;;52.35;17.13;;;7.40;99.90;;;;;;5115075;28;20036;-72
2021/12/29 04:50:37;;;;;;;51.90;15.98;;;7.40;99.90;;;;;;5112319;28;20164;-73
2021/12/29 04:53:05;;;;;;;37.05;15.60;;;7.40;99.90;;;;;;5094506;28;20051;-73
2021/12/29 04:55:31;;;;;;;38.72;16.02;;;7.40;99.90;;;;;;5094769;28;20081;-72
2021/12/29 04:57:58;;;;;;;48.35;17.17;;;7.40;99.90;;;;;;5097022;28;20036;-73
2021/12/29 05:00:25;;;;;;;40.88;16.38;;;7.40;99.90;;;;;;5111945;28;20043;-73
2021/12/29 05:02:52;;;;;;;44.50;16.88;;;7.40;99.90;;;;;;5112703;28;20126;-73
2021/12/29 05:05:41;;;;;;;38.25;14.95;;;7.40;99.90;;;;;;5093935;28;20044;-72
2021/12/29 05:08:26;;;;;;;34.35;15.40;;;7.40;99.90;;;;;;5096943;28;20036;-73
2021/12/29 05:11:00;;;;;;;36.00;15.75;;;7.50;99.90;;;;;;5096041;28;20518;-73
2021/12/29 05:13:29;;;;;;;34.40;15.07;;;7.40;99.90;;;;;;5113200;28;20039;-73
2021/12/29 05:15:55;;;;;;;40.97;16.15;;;7.50;99.90;;;;;;5113578;28;20041;-73
2021/12/29 05:18:23;;;;;;;39.92;16.05;;;7.40;99.90;;;;;;5096264;28;20072;-73
2021/12/29 05:20:49;;;;;;;34.40;14.73;;;7.50;99.90;;;;;;5096245;28;20049;-73
2021/12/29 05:23:15;;;;;;;41.58;15.82;;;7.50;99.90;;;;;;5129539;27;20036;-73
2021/12/29 05:25:40;;;;;;;40.83;15.30;;;7.40;99.90;;;;;;5096148;28;20088;-73
2021/12/29 05:28:07;;;;;;;45.65;15.70;;;7.40;99.90;;;;;;5097004;28;20036;-73
2021/12/29 05:30:33;;;;;;;35.20;14.52;;;7.50;99.90;;;;;;5102810;28;20076;-73
2021/12/29 05:32:58;;;;;;;35.67;15.23;;;7.40;99.90;;;;;;5076907;28;20071;-73
2021/12/29 05:35:24;;;;;;;39.03;16.42;;;7.40;99.90;;;;;;5101172;28;20047;-73
2021/12/29 05:37:50;;;;;;;36.30;15.02;;;7.50;99.90;;;;;;5096849;28;20548;-73
2021/12/29 05:40:15;;;;;;;41.42;15.68;;;7.50;99.90;;;;;;5089160;28;20044;-73
2021/12/29 05:42:42;;;;;;;39.83;15.23;;;7.40;99.90;;;;;;5095799;28;20075;-73
2021/12/29 05:45:11;;;;;;;33.38;13.40;;;7.40;99.90;;;;;;5127438;27;20083;-73
2021/12/29 05:47:36;;;;;;;37.65;14.18;;;7.40;99.90;;;;;;5110263;28;20032;-73
2021/12/29 05:50:04;;;;;;;33.72;13.68;;;7.50;99.90;;;;;;5079816;28;20047;-73
2021/12/29 05:52:30;;;;;;;35.97;14.70;;;7.50;99.90;;;;;;5113757;28;20437;-72
2021/12/29 05:54:55;;;;;;;30.45;14.40;;;7.50;99.90;;;;;;5126478;27;20032;-72
2021/12/29 05:57:21;;;;;;;35.28;15.55;;;7.50;99.90;;;;;;5093147;28;20032;-73
2021/12/29 05:59:46;;;;;;;36.30;14.68;;;7.50;99.90;;;;;;5094464;28;20043;-73
2021/12/29 06:02:12;;;;;;;32.55;13.70;;;7.50;99.90;;;;;;5147976;27;20044;-73
2021/12/29 06:04:38;;;;;;;36.50;14.45;;;7.50;99.90;;;;;;5128867;27;20047;-72
2021/12/29 06:07:03;;;;;;;34.20;14.25;;;7.40;99.90;;;;;;5092833;28;20036;-73
2021/12/29 06:09:30;;;;;;;38.92;15.10;;;7.50;99.90;;;;;;5093009;28;20135;-73
2021/12/29 06:11:56;;;;;;;33.40;14.18;;;7.50;99.90;;;;;;5092421;28;20488;-72
2021/12/29 06:14:22;;;;;;;32.78;14.07;;;7.50;99.90;;;;;;5092927;28;20461;-72
2021/12/29 06:16:47;;;;;;;28.73;13.73;;;7.50;99.90;;;;;;5109585;27;20063;-73
2021/12/29 06:19:13;;;;;;;30.05;13.27;;;7.50;99.90;;;;;;5092569;28;20079;-72
2021/12/29 06:21:39;;;;;;;29.75;13.50;;;7.50;99.90;;;;;;5109155;28;20062;-73
2021/12/29 06:24:05;;;;;;;29.95;14.40;;;7.50;99.90;;;;;;5112825;28;20044;-72
2021/12/29 06:26:30;;;;;;;30.50;13.68;;;7.50;99.90;;;;;;5096173;28;20047;-73
2021/12/29 06:28:56;;;;;;;31.30;13.98;;;7.50;99.90;;;;;;5075682;28;20420;-72
2021/12/29 06:31:23;;;;;;;29.02;12.95;;;7.50;99.90;;;;;;5075518;28;20036;-72
2021/12/29 06:33:48;;;;;;;34.17;13.00;;;7.50;99.90;;;;;;5075577;28;20062;-73
2021/12/29 06:36:14;;;;;;;34.58;12.77;;;7.40;99.90;;;;;;5092272;28;20036;-73
2021/12/29 06:38:40;;;;;;;32.40;14.43;;;7.50;99.90;;;;;;5126533;27;20404;-72
2021/12/29 06:41:05;;;;;;;29.55;12.40;;;7.50;99.90;;;;;;5086335;28;20035;-73
2021/12/29 06:43:31;;;;;;;28.35;11.50;;;7.50;99.90;;;;;;5094357;28;20078;-72
2021/12/29 06:45:56;;;;;;;36.53;12.32;;;7.50;99.90;;;;;;5135294;27;20058;-73
2021/12/29 06:48:22;;;;;;;36.67;13.32;;;7.50;99.90;;;;;;5128937;27;20040;-72
2021/12/29 06:50:48;;;;;;;35.30;13.20;;;7.50;99.90;;;;;;5120420;27;20188;-72
2021/12/29 06:53:14;;;;;;;38.22;12.75;;;7.50;99.90;;;;;;5092207;28;20043;-72
2021/12/29 06:55:41;;;;;;;28.60;11.60;;;7.50;99.90;;;;;;5115068;27;20042;-72
2021/12/29 06:58:07;;;;;;;37.22;13.00;;;7.50;99.90;;;;;;5112517;28;20036;-72
2021/12/29 07:00:33;;;;;;;27.77;12.05;;;7.50;99.90;;;;;;5122746;27;20040;-72
2021/12/29 07:02:59;;;;;;;32.45;11.88;;;7.50;99.90;;;;;;5092055;28;20480;-72
2021/12/29 07:05:24;;;;;;;33.75;11.90;;;7.50;99.90;;;;;;5108484;28;20111;-73
2021/12/29 07:07:52;;;;;;;37.83;13.30;;;7.50;99.90;;;;;;5131168;27;20036;-73
2021/12/29 07:10:18;;;;;;;33.80;12.80;;;7.50;99.90;;;;;;5111396;28;20046;-73
2021/12/29 07:12:43;;;;;;;40.15;12.20;;;7.50;99.90;;;;;;5092970;28;20039;-73
2021/12/29 07:15:09;;;;;;;33.75;12.43;;;7.50;99.90;;;;;;5126871;28;20047;-73
2021/12/29 07:17:35;;;;;;;28.02;11.38;;;7.50;99.90;;;;;;5104293;28;20035;-72
2021/12/29 07:20:00;;;;;;;31.90;11.18;;;7.50;99.90;;;;;;5133115;27;20085;-73
2021/12/29 07:22:26;;;;;;;32.40;12.32;;;7.50;99.90;;;;;;5080317;28;20048;-73
2021/12/29 07:24:51;;;;;;;31.67;11.27;;;7.50;99.90;;;;;;5140474;27;20036;-73
2021/12/29 07:27:17;;;;;;;38.20;12.38;;;7.50;99.90;;;;;;5111563;27;20059;-73
2021/12/29 07:29:43;;;;;;;39.38;12.52;;;7.50;99.90;;;;;;5136823;27;20055;-72
2021/12/29 07:32:09;;;;;;;41.90;12.65;;;7.50;99.90;;;;;;5110542;28;20044;-73
2021/12/29 07:34:35;;;;;;;48.35;13.93;;;7.50;99.90;;;;;;5111883;28;20071;-73
2021/12/29 07:37:01;;;;;;;47.08;13.52;;;7.50;99.90;;;;;;5104342;28;20496;-73
2021/12/29 07:39:27;;;;;;;33.60;11.63;;;7.50;99.90;;;;;;5092057;28;20028;-73
2021/12/29 07:41:54;;;;;;;38.53;12.38;;;7.40;99.90;;;;;;5093737;28;20043;-72
2021/12/29 07:44:21;;;;;;;45.35;12.20;;;7.50;99.90;;;;;;5094553;28;20036;-73
2021/12/29 07:46:51;;;;;;;37.15;12.05;;;7.50;99.90;;;;;;5115049;28;20035;-72
2021/12/29 07:49:16;;;;;;;46.65;11.73;;;7.40;99.90;;;;;;5107121;28;20517;-73
2021/12/29 07:51:43;;;;;;;33.17;11.10;;;7.40;99.90;;;;;;5093611;28;20202;-73
2021/12/29 07:54:10;;;;;;;34.35;10.88;;;7.40;99.90;;;;;;5111556;28;20046;-72
2021/12/29 07:56:36;;;;;;;30.85;10.63;;;7.40;99.90;;;;;;5111516;28;20039;-72
2021/12/29 07:59:02;;;;;;;33.58;11.48;;;7.40;99.90;;;;;;5095548;27;20027;-72
2021/12/29 08:01:28;;;;;;;37.00;10.80;;;7.50;99.90;;;;;;5104960;27;20097;-72
2021/12/29 08:03:54;;;;;;;29.23;9.98;;;7.50;99.90;;;;;;5113686;28;20421;-72
2021/12/29 08:06:20;;;;;;;29.05;9.88;;;7.40;99.90;;;;;;5111654;28;20046;-72
2021/12/29 08:08:45;;;;;;;35.85;10.90;;;7.50;99.90;;;;;;5095786;28;20035;-73
2021/12/29 08:11:11;;;;;;;29.02;9.90;;;7.50;99.90;;;;;;5113693;27;20088;-73
2021/12/29 08:13:37;;;;;;;27.35;9.60;;;7.50;99.90;;;;;;5112191;28;20036;-73
2021/12/29 08:16:03;;;;;;;24.98;9.55;;;7.50;99.90;;;;;;5113568;27;20028;-73
2021/12/29 08:18:28;;;;;;;40.30;10.68;;;7.50;99.90;;;;;;5094244;28;20027;-72
2021/12/29 08:20:54;;;;;;;32.80;10.13;;;7.50;99.90;;;;;;5134408;27;20040;-73
2021/12/29 08:23:20;;;;;;;22.92;9.13;;;7.50;99.90;;;;;;5105661;27;20417;-73
2021/12/29 08:25:45;;;;;;;28.08;9.68;;;7.50;99.90;;;;;;5116405;27;20043;-72
2021/12/29 08:28:12;;;;;;;22.38;8.93;;;7.50;99.90;;;;;;5101869;28;20042;-73
2021/12/29 08:30:38;;;;;;;34.55;9.75;;;7.60;99.90;;;;;;5112394;28;20093;-73
2021/12/29 08:33:03;;;;;;;27.02;9.98;;;7.60;99.90;;;;;;5095082;28;20036;-73
2021/12/29 08:35:29;;;;;;;32.42;10.40;;;7.60;99.90;;;;;;5127475;27;20116;-72
2021/12/29 08:37:56;;;;;;;36.00;10.45;;;7.70;99.90;;;;;;5097330;28;20036;-73
2021/12/29 08:40:22;;;;;;;27.17;9.85;;;7.70;99.90;;;;;;5118804;27;20040;-73
2021/12/29 08:42:48;;;;;;;29.23;11.63;;;7.70;99.90;;;;;;5117312;27;20052;-73
2021/12/29 08:45:16;;;;;;;42.60;11.23;;;7.70;99.90;;;;;;5081778;28;20648;-73
2021/12/29 08:47:42;;;;;;;32.60;11.40;;;7.70;99.90;;;;;;5107317;28;20411;-73
2021/12/29 08:50:11;;;;;;;40.72;10.75;;;7.70;99.90;;;;;;5093896;28;20032;-73
2021/12/29 08:52:38;;;;;;;42.15;10.93;;;7.70;99.90;;;;;;5104311;28;20027;-72
2021/12/29 08:55:04;;;;;;;39.70;11.10;;;7.70;99.90;;;;;;5085202;28;20396;-72
2021/12/29 08:57:30;;;;;;;31.85;10.40;;;7.70;99.90;;;;;;5110692;28;20044;-72
2021/12/29 08:59:56;;;;;;;47.97;11.50;;;7.70;99.90;;;;;;5099280;28;20036;-73
2021/12/29 09:02:21;;;;;;;30.83;9.95;;;7.70;99.90;;;;;;5116445;27;20480;-73
2021/12/29 09:04:47;;;;;;;45.33;11.80;;;7.70;99.90;;;;;;5142243;27;20039;-73
2021/12/29 09:07:13;;;;;;;39.75;11.05;;;7.60;99.90;;;;;;5144382;27;20097;-73
2021/12/29 09:09:38;;;;;;;45.17;11.60;;;7.70;99.90;;;;;;5116694;27;20063;-73
2021/12/29 09:12:04;;;;;;;34.58;11.60;;;7.70;99.90;;;;;;5089836;28;20256;-73
2021/12/29 09:14:30;;;;;;;43.30;12.60;;;7.70;99.90;;;;;;5097247;28;20468;-73
2021/12/29 09:16:55;;;;;;;41.53;11.95;;;7.80;99.90;;;;;;5109908;28;20070;-73
2021/12/29 09:19:22;;;;;;;37.28;11.75;;;7.80;99.90;;;;;;5136387;27;20035;-73
2021/12/29 09:21:52;;;;;;;43.97;12.35;;;7.80;99.90;;;;;;5123483;27;20148;-73
2021/12/29 09:24:18;;;;;;;26.02;10.77;;;7.80;99.90;;;;;;5115055;27;20028;-73
2021/12/29 09:26:44;;;;;;;39.90;12.35;;;7.90;99.90;;;;;;5123032;27;20040;-73
2021/12/29 09:29:09;;;;;;;25.92;9.75;;;7.90;99.90;;;;;;5106403;27;20036;-73
2021/12/29 09:31:35;;;;;;;46.33;11.77;;;7.90;99.90;;;;;;5093036;28;20075;-73
2021/12/29 09:34:01;;;;;;;36.83;10.60;;;7.90;99.90;;;;;;5092983;28;20031;-73
2021/12/29 09:36:26;;;;;;;46.67;11.27;;;7.90;99.90;;;;;;5111265;28;20051;-73
2021/12/29 09:38:52;;;;;;;25.90;8.93;;;7.90;99.90;;;;;;5114361;27;20036;-73
2021/12/29 09:41:19;;;;;;;25.80;9.10;;;7.90;99.90;;;;;;5133825;27;20044;-72
2021/12/29 09:43:47;;;;;;;18.98;8.32;;;8.10;99.90;;;;;;5099000;28;20504;-73
2021/12/29 09:46:14;;;;;;;22.60;8.80;;;8.10;99.90;;;;;;5112710;28;20036;-73
2021/12/29 09:48:40;;;;;;;34.70;8.93;;;8.20;99.90;;;;;;5092567;28;20131;-73
2021/12/29 09:51:12;;;;;;;23.30;7.72;;;8.10;99.90;;;;;;5109502;28;20047;-73
2021/12/29 09:53:38;;;;;;;38.30;9.60;;;8.10;99.90;;;;;;5089662;28;20040;-73
2021/12/29 09:56:05;;;;;;;21.08;7.90;;;8.10;99.90;;;;;;5112977;28;20042;-73
2021/12/29 09:58:31;;;;;;;17.67;7.70;;;8.10;99.90;;;;;;5095272;28;20360;-73
2021/12/29 10:01:04;;;;;;;23.95;8.48;;;8.10;99.90;;;;;;5113029;28;20098;-73
2021/12/29 10:03:30;;;;;;;19.80;7.13;;;8.10;99.90;;;;;;5095018;28;20070;-73
2021/12/29 10:06:00;;;;;;;19.95;7.72;;;8.10;99.90;;;;;;5108353;28;20507;-73
2021/12/29 10:08:34;;;;;;;15.80;6.55;;;8.10;99.90;;;;;;5113156;28;20134;-73
2021/12/29 10:11:04;;;;;;;16.17;7.03;;;8.20;99.90;;;;;;5093303;28;20039;-73
2021/12/29 10:13:32;;;;;;;14.43;6.22;;;8.20;99.90;;;;;;5079191;28;20044;-73
2021/12/29 10:16:04;;;;;;;14.35;6.63;;;8.20;99.90;;;;;;5106333;28;20044;-84
2021/12/29 10:18:33;;;;;;;14.50;6.03;;;8.20;99.90;;;;;;5120765;27;20032;-76
2021/12/29 10:21:06;;;;;;;17.23;6.68;;;8.20;99.90;;;;;;5086273;28;20491;-73
2021/12/29 10:23:38;;;;;;;16.52;5.72;;;8.20;99.90;;;;;;5103813;28;20036;-72
2021/12/29 10:26:16;;;;;;;16.98;6.20;;;8.20;99.90;;;;;;5111583;28;20051;-72
2021/12/29 10:28:47;;;;;;;13.40;5.43;;;8.20;99.90;;;;;;5109031;28;20444;-72
2021/12/29 10:31:54;;;;;;;11.82;5.47;;;8.30;99.90;;;;;;5096523;28;20059;-72
2021/12/29 10:34:29;;;;;;;11.98;5.30;;;8.30;99.90;;;;;;5080584;28;20433;-73
2021/12/29 10:37:05;;;;;;;14.50;5.65;;;8.30;99.90;;;;;;5091490;28;20028;-73
2021/12/29 10:39:49;;;;;;;12.07;5.47;;;8.30;99.90;;;;;;5083285;28;20036;-72
2021/12/29 10:42:17;;;;;;;15.15;5.65;;;8.40;99.90;;;;;;5100112;28;20118;-72
2021/12/29 10:44:49;;;;;;;14.40;6.05;;;8.30;99.90;;;;;;5107253;28;20047;-73
2021/12/29 10:47:21;;;;;;;17.48;6.35;;;8.30;99.90;;;;;;5130421;27;20089;-72
2021/12/29 10:50:00;;;;;;;18.10;6.68;;;8.30;99.90;;;;;;5121466;27;20118;-73
2021/12/29 10:52:44;;;;;;;15.30;6.22;;;8.20;99.90;;;;;;5105100;28;20032;-72
2021/12/29 10:55:22;;;;;;;12.85;6.20;;;8.20;99.90;;;;;;5102394;28;20496;-73
2021/12/29 10:58:14;;;;;;;13.10;5.97;;;8.30;99.90;;;;;;5110059;28;20036;-72
2021/12/29 11:00:44;;;;;;;15.73;7.00;;;8.40;99.90;;;;;;5091868;28;20036;-73
2021/12/29 11:03:19;;;;;;;16.55;7.75;;;8.30;99.90;;;;;;5116674;28;20050;-72
2021/12/29 11:05:48;;;;;;;17.20;6.80;;;8.30;99.90;;;;;;5110809;28;20036;-73
2021/12/29 11:08:15;;;;;;;16.75;7.03;;;8.30;99.90;;;;;;5111419;28;20044;-73
2021/12/29 11:10:43;;;;;;;14.73;6.90;;;8.40;99.90;;;;;;5086450;28;20046;-73
2021/12/29 11:13:09;;;;;;;16.83;7.28;;;8.30;99.90;;;;;;5093691;28;20041;-73
2021/12/29 11:15:41;;;;;;;16.20;6.25;;;8.40;99.90;;;;;;5111395;28;20040;-73
2021/12/29 11:18:13;;;;;;;16.80;6.70;;;8.40;99.90;;;;;;5092476;28;20031;-73
2021/12/29 11:20:39;;;;;;;17.63;7.00;;;8.40;99.90;;;;;;5110880;28;20085;-72
2021/12/29 11:23:11;;;;;;;20.17;7.43;;;8.40;99.90;;;;;;5112071;28;20130;-72
2021/12/29 11:25:38;;;;;;;14.75;6.40;;;8.30;99.90;;;;;;5099563;28;20036;-73
2021/12/29 11:28:05;;;;;;;15.45;6.80;;;8.30;99.90;;;;;;5089939;28;20040;-73
2021/12/29 11:30:32;;;;;;;15.30;7.15;;;8.40;99.90;;;;;;5094194;28;20043;-73
2021/12/29 11:33:10;;;;;;;17.05;6.93;;;8.50;99.90;;;;;;5086334;28;20085;-73
2021/12/29 11:35:41;;;;;;;12.20;6.22;;;8.50;99.90;;;;;;5110574;28;20550;-73
2021/12/29 11:38:08;;;;;;;19.83;6.47;;;8.50;99.90;;;;;;5105582;28;20039;-73
2021/12/29 11:40:37;;;;;;;16.58;5.80;;;8.60;99.90;;;;;;5079133;28;20473;-73
2021/12/29 11:43:03;;;;;;;17.80;6.35;;;8.80;99.90;;;;;;5078743;28;20052;-73
2021/12/29 11:45:29;;;;;;;15.15;6.40;;;8.80;99.90;;;;;;5079980;28;20050;-73
2021/12/29 11:47:54;;;;;;;16.05;6.05;;;8.70;99.90;;;;;;5080415;28;20043;-73
2021/12/29 11:50:30;;;;;;;13.82;5.93;;;8.80;99.90;;;;;;5111578;28;20040;-73
2021/12/29 11:53:29;;;;;;;13.68;5.38;;;8.90;99.90;;;;;;5084062;28;20045;-73
2021/12/29 11:56:20;;;;;;;18.23;5.90;;;8.90;99.90;;;;;;5083545;28;20185;-73
2021/12/29 11:58:49;;;;;;;14.48;5.50;;;8.90;99.90;;;;;;5102047;28;20131;-73
2021/12/29 12:01:24;;;;;;;14.77;6.00;;;9.00;99.90;;;;;;5101213;28;20040;-73
2021/12/29 12:04:05;;;;;;;16.58;6.65;;;8.90;99.90;;;;;;5096546;28;20051;-73
2021/12/29 12:06:43;;;;;;;15.13;5.97;;;8.90;99.90;;;;;;5120353;27;20039;-73
2021/12/29 12:09:20;;;;;;;11.13;5.50;;;9.00;99.90;;;;;;5114756;28;20515;-73
2021/12/29 12:11:48;;;;;;;14.18;5.68;;;9.00;99.90;;;;;;5089597;27;20028;-73
2021/12/29 12:14:21;;;;;;;12.65;4.75;;;9.00;99.90;;;;;;5086005;28;20055;-73
2021/12/29 12:16:56;;;;;;;13.45;4.90;;;9.00;99.90;;;;;;5107078;28;20118;-73
2021/12/29 12:19:25;;;;;;;13.82;5.35;;;9.00;99.90;;;;;;5096343;28;20575;-73
2021/12/29 12:22:19;;;;;;;16.27;5.68;;;9.00;99.90;;;;;;5091510;28;20036;-73
2021/12/29 12:25:05;;;;;;;11.52;4.55;;;9.00;99.90;;;;;;5095693;28;20539;-73
2021/12/29 12:27:37;;;;;;;12.93;5.03;;;9.00;99.90;;;;;;5083103;28;20130;-73
2021/12/29 12:30:11;;;;;;;16.98;5.18;;;9.00;99.90;;;;;;5114168;28;20051;-73
2021/12/29 12:32:50;;;;;;;15.82;4.75;;;9.10;99.90;;;;;;5105781;28;20035;-73
2021/12/29 12:35:35;;;;;;;14.40;4.85;;;8.90;99.90;;;;;;5086900;28;20046;-73
2021/12/29 12:38:34;;;;;;;19.00;4.72;;;9.00;99.90;;;;;;5114515;28;20075;-73
2021/12/29 12:41:18;;;;;;;12.98;4.78;;;8.90;99.90;;;;;;5079564;28;20075;-73
2021/12/29 12:43:57;;;;;;;17.73;4.88;;;8.90;99.90;;;;;;5128132;27;20105;-73
2021/12/29 12:46:29;;;;;;;12.00;5.05;;;8.90;99.90;;;;;;5130019;27;20055;-72
2021/12/29 12:48:55;;;;;;;11.10;4.20;;;8.80;99.90;;;;;;5148316;27;20198;-73